This is the latest recevied weather packets stored in our database for station/object ka8upw-1. If no packets are shown the sender has not sent any weather packets the latest 10 day(s).
| Time | Temp. | Humidity | Pressure | Rain* | Wind** | Luminosity | Snow |
|---|---|---|---|---|---|---|---|
| 1778209342 | 10° C | 64% | 1011.7 hPa | 0 mm | - | - | - |
| 1778208843 | 10° C | 63% | 1011.9 hPa | 0 mm | - | - | - |
| 1778207224 | 10° C | 60% | 1011.9 hPa | 0 mm | - | - | - |
| 1778206818 | 10.56° C | 60% | 1011.7 hPa | 0 mm | - | - | - |
| 1778205603 | 10.56° C | 57% | 1011.7 hPa | 0 mm | - | - | - |
| 1778205244 | 10.56° C | 57% | 1011.7 hPa | 0 mm | - | - | - |
| 1778202543 | 11.11° C | 53% | 1011.2 hPa | 0 mm | - | - | - |
| 1778202008 | 10.56° C | 57% | 1011.1 hPa | 0 mm | - | - | - |
| 1778201780 | 10.56° C | 59% | 1011.2 hPa | 0 mm | - | - | - |
| 1778199484 | 11.11° C | 52% | 1010.7 hPa | 0 mm | - | - | - |
| 1778196423 | 12.22° C | 47% | 1010.5 hPa | 0 mm | - | - | - |
| 1778196020 | 12.78° C | 48% | 1010.5 hPa | 0 mm | - | - | - |
| 1778190439 | 13.33° C | 46% | 1010.7 hPa | 0 mm | - | - | - |
| 1778189763 | 14.44° C | 44% | 1010.5 hPa | 0 mm | - | - | - |
| 1778189223 | 14.44° C | 44% | 1010.5 hPa | 0 mm | - | - | - |
| 1778183103 | 13.33° C | 51% | 1010.8 hPa | 0 mm | - | - | - |
| 1778180537 | 12.22° C | 53% | 1011 hPa | 0 mm | - | - | - |
| 1778177480 | 12.22° C | 55% | 1011 hPa | 0 mm | - | - | - |
| 1778176443 | 12.22° C | 55% | 1011.1 hPa | 0 mm | - | - | - |
| 1778174823 | 11.11° C | 58% | 1011.4 hPa | 0 mm | - | - | - |
| 1778172437 | 11.67° C | 52% | 1011.5 hPa | 0 mm | - | - | - |
| 1778168703 | 11.11° C | 55% | 1011.4 hPa | 0 mm | - | - | - |
| 1778160964 | 7.78° C | 73% | 1011.9 hPa | 0 mm | - | - | - |
| 1778160423 | 7.78° C | 75% | 1011.8 hPa | 0 mm | - | - | - |
| 1778159479 | 7.22° C | 75% | 1011.8 hPa | 0 mm | - | - | - |
* Rain latest hour (hover to see other rain measurements)
** Current wind speed in m/s (hover to see current wind gust speed)